Bradford Regional Airport
KBFD : now visible

Airfield :











YOU CAN JOIN US ON...

 
LOGIN :

Register | Disclaimer

   EN    FR    IT 

 









Legend :    VFR   Marginal VFR   IFR   Intensive IFR   Very Intensive IFR
Visi :
Ceiling :
>= 8 km
>= 3000ft
5 to 8 km
1000 to 3000 ft
1500m to 5 km
500 to 1000 ft
800 to 1500m
200 to 500 ft
< 800m
< 200 ft
Symbols :   Thunderstorms  Fog  Heavy snow  Heavy precipitations  Wind > 20 kt






- Airport Elevation : 2143 ft
- IATA code : BFD


KBFD - Bradford Regional

CURRENT METAR :
  • 261716Z AUTO 18004KT 1/4SM FG VV002 04/03 A2977 RMK AO2 T00440033

EXPIRED METARs :
  • 261701Z AUTO 17004KT 3/4SM BR OVC002 04/03 A2977 RMK AO2 T00440033
  • 261653Z AUTO 16003KT 1SM BR OVC002 04/03 A2977 RMK AO2 SLP095 T00440033
  • 261646Z AUTO 18004KT 3/4SM BR OVC002 04/03 A2978 RMK AO2 T00390033
  • 261605Z AUTO 14003KT 1SM BR OVC002 03/02 A2980 RMK AO2 T00280017
  • 261553Z AUTO 14003KT 3/4SM BR OVC002 03/02 A2980 RMK AO2 SLP106 T00280017
  • 261510Z AUTO VRB04KT 1/2SM FG VV002 02/01 A2982 RMK AO2 T00220011
  • 261453Z AUTO 13004KT 1/4SM FG VV002 02/01 A2981 RMK AO2 SLP107 T00170011 58001
  • 261437Z AUTO 13004KT 1/4SM FG VV002 02/01 A2981 RMK AO2 T00170006

TAF KBFD
Valid from the 26 at 15:00 until the 27 at 12:00 UTC


261510Z 2615/2712 13005KT 1/2SM FG OVC002
FM261800 14007KT 5SM BR VCSH OVC012
FM262300 17007KT 2SM -RA BR OVC007
FM270100 23007KT 1SM -SNRA OVC004
FM270300 26010G20KT 1SM -SN BR OVC004
TEMPO 2703/2707 1/4SM +SN OVC003
FM270800 27013G23KT 2SM -SHSN OVC009



MET'MAP, your aeronautical weather chart ! - Copyright ORBIFLY December 2007 - Disclaimer

ORBIFLY MET'MAP TEAM :

Programming & Development : Alexandra Zaïnal
Concept & original design : Baudouin d'Aumeries
Assistance for programming : Marc-Olivier Méhu
Technical & hardware support : Manuel Goepfert

Contact : metmap@orbifly.com




SOURCES & CREDITS :

   NOAA       Earth
Advisory